Impacts TAF Board
For situational awareness. Not to be used for flight planning purposes.
IDs:

KAEX - Alexandria Intl, LA, US

Issued at 2333 UTC 05 Dec 2019
Updated at 0112 UTC 06 Dec 2019
Potential Impact None Slight Moderate High
Time0053Z 06/02Z 06/03Z 06/04Z 06/05Z 06/06Z 06/07Z 06/08Z 06/09Z 06/10Z 06/11Z 06/12Z 06/13Z 06/14Z>>
Type OBS PRVL PRVL PRVL PRVL PRVL PRVL PRVL PRVL PRVL PRVL PRVL PRVL PRVL
VIS 10 >6 >6 >6 >6 >6 >6 >6 >6 >6 >6 >6 >6 >6
CIG -- 200 200 200 200 25 25 25 25 15 15 15 15 15
Cover CLR BKN BKN BKN BKN BKN BKN BKN BKN OVC OVC OVC OVC OVC
FltCat VFR VFR VFR VFR VFR MVFR MVFR MVFR MVFR MVFR MVFR MVFR MVFR MVFR
WX -- -- -- -- -- -- -- -- -- -- -- -- -- --
WDir 170 150 150 150 150 160 160 160 160 150 150 150 150 150
WSpd 7 5 5 5 5 6 6 6 6 7 7 7 7 7
WGst -- -- -- -- -- -- -- -- -- -- -- -- -- --
Raw TAF
KAEX 052333Z 0600/0624 15005KT P6SM BKN200
  FM060600 16006KT P6SM BKN025 BKN100
  FM061000 15007KT P6SM OVC015
  FM061800 26009KT P6SM OVC025
  FM062100 31006KT P6SM BKN025 BKN200


Raw METAR
KAEX 060053Z 17007KT 10SM CLR 15/07 A3003 RMK AO2 SLP173 T01500067
KAEX 052353Z 16005KT 10SM CLR 16/06 A3002 RMK AO2 SLP170 T01560061 10217 20144 53003
KAEX 052253Z 14006KT 10SM CLR 17/06 A3001 RMK AO2 SLP166 T01670061

METAR Board
Radar Display
Forecast Discussion
For situational awareness. Not to be used for flight planning purposes.